createdAt,value
2017-01-26T00:00:10.858Z,17.80
2017-01-26T00:01:12.629Z,17.82
2017-01-26T00:02:12.370Z,17.31
2017-01-26T00:03:12.945Z,17.26
2017-01-26T00:04:12.087Z,17.23
2017-01-26T00:05:13.202Z,17.22
2017-01-26T00:06:13.122Z,17.21
2017-01-26T00:07:13.041Z,17.20
2017-01-26T00:08:10.068Z,17.19
2017-01-26T00:09:12.582Z,17.27
2017-01-26T00:10:12.550Z,17.20
2017-01-26T00:11:12.681Z,17.18
2017-01-26T00:12:12.585Z,17.23
2017-01-26T00:13:11.748Z,17.19
2017-01-26T00:14:12.529Z,17.22
2017-01-26T00:15:12.621Z,17.19
2017-01-26T00:16:12.332Z,17.18
2017-01-26T00:17:12.484Z,17.18
2017-01-26T00:18:12.961Z,17.20
2017-01-26T00:19:12.589Z,17.70
2017-01-26T00:20:11.920Z,17.23
2017-01-26T00:21:12.630Z,17.20
2017-01-26T00:22:14.450Z,17.18
2017-01-26T00:23:12.133Z,17.18
2017-01-26T00:24:13.798Z,17.17
2017-01-26T00:25:11.877Z,17.17
2017-01-26T00:26:11.907Z,17.17
2017-01-26T00:27:11.935Z,17.15
2017-01-26T00:28:11.980Z,17.16
2017-01-26T00:29:11.933Z,17.17
2017-01-26T00:30:11.919Z,17.15
2017-01-26T00:31:12.576Z,17.15
2017-01-26T00:32:12.679Z,17.15
2017-01-26T00:33:12.353Z,17.15
2017-01-26T00:34:12.406Z,17.14
2017-01-26T00:35:12.490Z,17.14
2017-01-26T00:36:13.456Z,17.15
2017-01-26T00:37:14.296Z,17.14
2017-01-26T00:38:12.458Z,17.14
2017-01-26T00:39:10.927Z,17.14
2017-01-26T00:40:12.768Z,17.14
2017-01-26T00:41:11.819Z,17.15
2017-01-26T00:42:11.992Z,17.15
2017-01-26T00:43:12.198Z,17.14
2017-01-26T00:44:12.365Z,17.14
2017-01-26T00:45:13.807Z,17.14
2017-01-26T00:46:14.526Z,17.13
2017-01-26T00:47:13.350Z,17.13
2017-01-26T00:48:13.616Z,17.14
2017-01-26T00:49:12.019Z,17.14
2017-01-26T00:50:12.735Z,17.13
2017-01-26T00:51:13.370Z,17.14
2017-01-26T00:52:12.423Z,17.14
2017-01-26T00:53:13.821Z,17.13
2017-01-26T00:54:11.939Z,17.14
2017-01-26T00:55:12.118Z,17.14
2017-01-26T00:56:12.065Z,17.14
2017-01-26T00:57:12.137Z,17.15
2017-01-26T00:58:12.355Z,17.14
2017-01-26T00:59:12.572Z,17.15
2017-01-26T01:00:16.410Z,17.14
2017-01-26T01:01:14.320Z,17.15
2017-01-26T01:02:13.518Z,17.16
2017-01-26T01:03:13.360Z,17.16
2017-01-26T01:04:15.233Z,17.17
2017-01-26T01:05:12.357Z,17.17
2017-01-26T01:06:13.761Z,17.17
2017-01-26T01:07:14.247Z,17.18
2017-01-26T01:08:13.006Z,17.17
2017-01-26T01:09:12.556Z,17.25
2017-01-26T01:10:12.381Z,17.17
2017-01-26T01:11:15.533Z,17.18
2017-01-26T01:12:15.535Z,17.21
2017-01-26T01:13:13.109Z,17.21
2017-01-26T01:14:14.656Z,17.71
2017-01-26T01:15:12.088Z,17.76
2017-01-26T01:16:14.387Z,17.80
2017-01-26T01:17:10.720Z,17.81
2017-01-26T01:18:13.084Z,17.83
2017-01-26T01:19:12.091Z,17.31
2017-01-26T01:20:14.546Z,17.26
2017-01-26T01:21:16.001Z,17.23
2017-01-26T01:22:12.667Z,17.22
2017-01-26T01:23:12.204Z,17.23
2017-01-26T01:24:13.450Z,17.22
2017-01-26T01:25:13.153Z,17.21
2017-01-26T01:26:12.320Z,17.21
2017-01-26T01:27:12.989Z,17.21
2017-01-26T01:28:12.051Z,17.21
2017-01-26T01:29:12.330Z,17.20
2017-01-26T01:30:13.289Z,17.20
2017-01-26T01:31:12.474Z,17.21
2017-01-26T01:32:11.041Z,17.21
2017-01-26T01:33:12.913Z,17.73
2017-01-26T01:34:13.058Z,17.78
2017-01-26T01:35:12.496Z,17.83
2017-01-26T01:36:13.718Z,17.85
2017-01-26T01:37:12.015Z,17.85
2017-01-26T01:38:13.550Z,17.85
2017-01-26T01:39:12.277Z,17.86
2017-01-26T01:40:13.960Z,17.86
2017-01-26T01:41:13.350Z,17.87
2017-01-26T01:42:11.794Z,17.86
2017-01-26T01:43:13.495Z,17.87
2017-01-26T01:44:13.641Z,17.87
2017-01-26T01:45:13.208Z,17.87
2017-01-26T01:46:13.277Z,17.62
2017-01-26T01:47:12.377Z,17.88
2017-01-26T01:48:13.091Z,17.88
2017-01-26T01:49:12.010Z,17.88
2017-01-26T01:50:12.665Z,17.88
2017-01-26T01:51:12.863Z,17.87
2017-01-26T01:52:13.408Z,17.87
2017-01-26T01:53:13.369Z,17.87
2017-01-26T01:54:13.581Z,17.87
2017-01-26T01:55:11.596Z,17.53
2017-01-26T01:56:08.979Z,17.33
2017-01-26T01:57:13.184Z,17.30
2017-01-26T01:58:10.616Z,17.24
2017-01-26T01:59:13.365Z,17.22
2017-01-26T02:00:12.984Z,17.23
2017-01-26T02:01:13.238Z,17.22
2017-01-26T02:02:12.829Z,17.22
2017-01-26T02:03:14.249Z,17.21
2017-01-26T02:04:11.128Z,17.20
2017-01-26T02:05:12.673Z,17.19
2017-01-26T02:06:12.920Z,17.20
2017-01-26T02:07:12.872Z,17.20
2017-01-26T02:08:13.683Z,17.19
2017-01-26T02:09:12.766Z,17.20
2017-01-26T02:10:11.794Z,17.19
2017-01-26T02:11:14.360Z,17.19
2017-01-26T02:12:13.239Z,17.19
2017-01-26T02:13:13.401Z,17.19
2017-01-26T02:14:13.967Z,17.19
2017-01-26T02:15:13.150Z,17.27
2017-01-26T02:16:12.399Z,17.19
2017-01-26T02:17:13.324Z,17.19
2017-01-26T02:18:13.023Z,17.20
2017-01-26T02:19:12.786Z,17.18
2017-01-26T02:20:13.064Z,17.18
2017-01-26T02:21:13.505Z,17.20
2017-01-26T02:22:12.714Z,17.19
2017-01-26T02:23:13.499Z,17.18
2017-01-26T02:24:13.472Z,17.19
2017-01-26T02:25:13.189Z,17.18
2017-01-26T02:26:11.195Z,17.18
2017-01-26T02:27:12.882Z,17.40
2017-01-26T02:28:13.406Z,17.25
2017-01-26T02:29:11.457Z,17.20
2017-01-26T02:30:13.798Z,17.73
2017-01-26T02:31:12.581Z,17.77
2017-01-26T02:32:13.406Z,17.81
2017-01-26T02:33:14.203Z,17.82
2017-01-26T02:34:13.720Z,17.31
2017-01-26T02:35:11.894Z,17.25
2017-01-26T02:36:12.461Z,17.28
2017-01-26T02:37:12.268Z,17.22
2017-01-26T02:38:12.876Z,17.21
2017-01-26T02:39:14.599Z,17.20
2017-01-26T02:40:12.521Z,17.20
2017-01-26T02:41:13.366Z,17.21
2017-01-26T02:42:12.512Z,17.20
2017-01-26T02:43:11.172Z,17.20
2017-01-26T02:44:12.531Z,17.20
2017-01-26T02:45:10.613Z,17.20
2017-01-26T02:46:11.901Z,17.70
2017-01-26T02:47:12.020Z,17.79
2017-01-26T02:48:12.008Z,17.83
2017-01-26T02:49:10.083Z,17.84
2017-01-26T02:50:12.359Z,17.86
2017-01-26T02:51:12.506Z,17.33
2017-01-26T02:52:11.728Z,17.29
2017-01-26T02:53:10.031Z,17.26
2017-01-26T02:54:12.929Z,17.25
2017-01-26T02:55:12.009Z,17.24
2017-01-26T02:56:12.053Z,17.23
2017-01-26T02:57:12.219Z,17.23
2017-01-26T02:58:13.425Z,17.23
2017-01-26T02:59:12.356Z,17.23
2017-01-26T03:00:14.051Z,17.23
2017-01-26T03:01:12.087Z,17.23
2017-01-26T03:02:12.799Z,17.30
2017-01-26T03:03:12.243Z,17.26
2017-01-26T03:04:13.314Z,17.30
2017-01-26T03:05:11.139Z,17.23
2017-01-26T03:06:13.428Z,17.23
2017-01-26T03:07:13.326Z,17.24
2017-01-26T03:08:13.878Z,17.24
2017-01-26T03:09:13.860Z,17.23
2017-01-26T03:10:11.816Z,17.23
2017-01-26T03:11:12.791Z,17.24
2017-01-26T03:12:12.427Z,17.29
2017-01-26T03:13:09.828Z,17.23
2017-01-26T03:14:12.460Z,17.24
2017-01-26T03:15:12.562Z,17.23
2017-01-26T03:16:12.756Z,17.23
2017-01-26T03:17:12.570Z,17.23
2017-01-26T03:18:11.545Z,17.23
2017-01-26T03:19:13.230Z,17.23
2017-01-26T03:20:12.108Z,17.23
2017-01-26T03:21:12.574Z,17.29
2017-01-26T03:22:13.170Z,17.23
2017-01-26T03:23:12.351Z,17.23
2017-01-26T03:24:12.413Z,17.23
2017-01-26T03:25:13.162Z,17.23
2017-01-26T03:26:13.104Z,17.24
2017-01-26T03:27:12.768Z,17.27
2017-01-26T03:28:11.911Z,17.22
2017-01-26T03:29:12.752Z,17.22
2017-01-26T03:30:13.711Z,17.22
2017-01-26T03:31:12.597Z,17.22
2017-01-26T03:32:10.376Z,17.21
2017-01-26T03:33:14.370Z,17.74
2017-01-26T03:34:12.494Z,17.47
2017-01-26T03:35:13.449Z,17.30
2017-01-26T03:36:12.957Z,17.26
2017-01-26T03:37:12.439Z,17.23
2017-01-26T03:38:13.995Z,17.22
2017-01-26T03:39:12.668Z,17.22
2017-01-26T03:40:11.508Z,17.21
2017-01-26T03:41:11.866Z,17.40
2017-01-26T03:42:11.837Z,17.26
2017-01-26T03:43:12.367Z,17.31
2017-01-26T03:44:12.947Z,17.24
2017-01-26T03:45:13.080Z,17.22
2017-01-26T03:46:12.887Z,17.21
2017-01-26T03:47:12.411Z,17.21
2017-01-26T03:48:13.078Z,17.25
2017-01-26T03:49:12.279Z,17.21
2017-01-26T03:50:12.258Z,17.21
2017-01-26T03:51:12.815Z,17.21
2017-01-26T03:52:11.754Z,17.21
2017-01-26T03:53:11.779Z,17.21
2017-01-26T03:54:12.070Z,17.21
2017-01-26T03:55:13.026Z,17.21
2017-01-26T03:56:13.592Z,17.20
2017-01-26T03:57:13.448Z,17.22
2017-01-26T03:58:13.987Z,17.22
2017-01-26T03:59:13.227Z,17.20
2017-01-26T04:00:13.116Z,17.21
2017-01-26T04:01:12.706Z,17.26
2017-01-26T04:02:13.356Z,17.20
2017-01-26T04:03:12.458Z,17.20
2017-01-26T04:04:13.196Z,17.21
2017-01-26T04:05:12.772Z,17.21
2017-01-26T04:06:11.848Z,17.20
2017-01-26T04:07:11.980Z,17.21
2017-01-26T04:08:13.877Z,17.20
2017-01-26T04:09:13.853Z,17.21
2017-01-26T04:10:13.486Z,17.21
2017-01-26T04:11:12.577Z,17.21
2017-01-26T04:12:11.075Z,17.21
2017-01-26T04:13:13.296Z,17.22
2017-01-26T04:14:12.366Z,17.22
2017-01-26T04:15:10.385Z,17.21
2017-01-26T04:16:11.046Z,17.75
2017-01-26T04:17:13.436Z,17.82
2017-01-26T04:18:13.013Z,17.85
2017-01-26T04:19:12.697Z,17.85
2017-01-26T04:20:12.299Z,17.33
2017-01-26T04:21:12.395Z,17.29
2017-01-26T04:22:12.465Z,17.26
2017-01-26T04:23:13.084Z,17.25
2017-01-26T04:24:13.203Z,17.24
2017-01-26T04:25:10.960Z,17.24
2017-01-26T04:26:12.105Z,17.24
2017-01-26T04:27:12.631Z,17.24
2017-01-26T04:28:11.926Z,17.24
2017-01-26T04:29:13.903Z,17.23
2017-01-26T04:30:12.815Z,17.24
2017-01-26T04:31:12.668Z,17.24
2017-01-26T04:32:14.225Z,17.77
2017-01-26T04:33:10.987Z,17.80
2017-01-26T04:34:11.190Z,17.84
2017-01-26T04:35:11.845Z,17.86
2017-01-26T04:36:12.107Z,17.88
2017-01-26T04:37:12.230Z,17.89
2017-01-26T04:38:12.225Z,17.89
2017-01-26T04:39:12.851Z,17.90
2017-01-26T04:40:12.345Z,17.89
2017-01-26T04:41:13.332Z,17.90
2017-01-26T04:42:12.971Z,17.91
2017-01-26T04:43:12.887Z,17.92
2017-01-26T04:44:12.646Z,17.91
2017-01-26T04:45:12.915Z,17.91
2017-01-26T04:46:13.776Z,17.91
2017-01-26T04:47:12.105Z,17.91
2017-01-26T04:48:12.075Z,17.91
2017-01-26T04:49:12.599Z,17.55
2017-01-26T04:50:11.728Z,17.38
2017-01-26T04:51:11.927Z,17.32
2017-01-26T04:52:11.990Z,17.29
2017-01-26T04:53:12.497Z,17.28
2017-01-26T04:54:13.109Z,17.27
2017-01-26T04:55:13.326Z,17.26
2017-01-26T04:56:13.039Z,17.26
2017-01-26T04:57:12.899Z,17.27
2017-01-26T04:58:10.701Z,17.25
2017-01-26T04:59:12.650Z,17.25
2017-01-26T05:00:13.375Z,17.25
2017-01-26T05:01:13.147Z,17.24
2017-01-26T05:02:12.797Z,17.32
2017-01-26T05:03:11.940Z,17.24
2017-01-26T05:04:12.551Z,17.24
2017-01-26T05:05:13.656Z,17.25
2017-01-26T05:06:11.928Z,17.25
2017-01-26T05:07:13.805Z,17.24
2017-01-26T05:08:12.111Z,17.25
2017-01-26T05:09:12.434Z,17.25
2017-01-26T05:10:12.371Z,17.25
2017-01-26T05:11:11.299Z,17.24
2017-01-26T05:12:13.059Z,17.25
2017-01-26T05:13:12.175Z,17.25
2017-01-26T05:14:12.502Z,17.25
2017-01-26T05:15:13.501Z,17.26
2017-01-26T05:16:15.325Z,17.24
2017-01-26T05:17:11.192Z,17.24
2017-01-26T05:18:09.652Z,17.24
2017-01-26T05:19:11.809Z,17.25
2017-01-26T05:20:11.857Z,17.24
2017-01-26T05:21:13.076Z,17.24
2017-01-26T05:22:13.654Z,17.25
2017-01-26T05:23:12.379Z,17.31
2017-01-26T05:24:13.001Z,17.27
2017-01-26T05:25:16.675Z,17.29
2017-01-26T05:26:16.132Z,17.25
2017-01-26T05:27:13.643Z,17.76
2017-01-26T05:28:12.759Z,17.83
2017-01-26T05:29:12.507Z,17.86
2017-01-26T05:30:12.274Z,17.76
2017-01-26T05:31:12.391Z,17.36
2017-01-26T05:32:12.931Z,17.38
2017-01-26T05:33:13.006Z,17.28
2017-01-26T05:34:12.604Z,17.26
2017-01-26T05:35:11.639Z,17.44
2017-01-26T05:36:11.888Z,17.31
2017-01-26T05:37:12.416Z,17.27
2017-01-26T05:38:14.538Z,17.26
2017-01-26T05:39:14.361Z,17.25
2017-01-26T05:40:12.851Z,17.28
2017-01-26T05:41:11.998Z,17.41
2017-01-26T05:42:12.746Z,17.30
2017-01-26T05:43:12.468Z,17.35
2017-01-26T05:44:12.647Z,17.45
2017-01-26T05:45:12.704Z,17.31
2017-01-26T05:46:11.763Z,17.26
2017-01-26T05:47:13.425Z,17.26
2017-01-26T05:48:12.553Z,17.25
2017-01-26T05:49:13.666Z,17.25
2017-01-26T05:50:12.276Z,17.25
2017-01-26T05:51:13.036Z,17.25
2017-01-26T05:52:12.759Z,17.25
2017-01-26T05:53:11.916Z,17.24
2017-01-26T05:54:12.677Z,17.24
2017-01-26T05:55:14.341Z,17.23
2017-01-26T05:56:10.560Z,17.24
2017-01-26T05:57:11.807Z,17.24
2017-01-26T05:58:11.938Z,17.24
2017-01-26T05:59:12.016Z,17.23
2017-01-26T06:00:10.928Z,17.23
2017-01-26T06:01:14.183Z,17.23
2017-01-26T06:02:09.576Z,17.23
2017-01-26T06:03:11.764Z,17.24
2017-01-26T06:04:13.395Z,17.24
2017-01-26T06:05:13.143Z,17.24
2017-01-26T06:06:10.866Z,17.24
2017-01-26T06:07:12.731Z,17.77
2017-01-26T06:08:11.723Z,17.83
2017-01-26T06:09:11.794Z,17.85
2017-01-26T06:10:12.683Z,17.86
2017-01-26T06:11:11.682Z,17.54
2017-01-26T06:12:12.260Z,17.35
2017-01-26T06:13:12.324Z,17.30
2017-01-26T06:14:12.435Z,17.28
2017-01-26T06:15:12.468Z,17.27
2017-01-26T06:16:12.625Z,17.26
2017-01-26T06:17:11.686Z,17.26
2017-01-26T06:18:10.761Z,17.26
2017-01-26T06:19:11.858Z,17.25
2017-01-26T06:20:12.552Z,17.25
2017-01-26T06:21:12.478Z,17.27
2017-01-26T06:22:13.158Z,17.25
2017-01-26T06:23:14.038Z,17.25
2017-01-26T06:24:10.941Z,17.24
2017-01-26T06:25:13.655Z,17.25
2017-01-26T06:26:12.508Z,17.28
2017-01-26T06:27:13.052Z,17.78
2017-01-26T06:28:12.954Z,17.83
2017-01-26T06:29:11.243Z,17.86
2017-01-26T06:30:12.229Z,17.87
2017-01-26T06:31:12.293Z,17.36
2017-01-26T06:32:12.952Z,17.31
2017-01-26T06:33:11.966Z,17.29
2017-01-26T06:34:12.655Z,17.31
2017-01-26T06:35:12.287Z,17.79
2017-01-26T06:36:11.050Z,17.85
2017-01-26T06:37:12.542Z,17.87
2017-01-26T06:38:13.479Z,17.90
2017-01-26T06:39:12.351Z,17.90
2017-01-26T06:40:14.421Z,17.37
2017-01-26T06:41:11.457Z,17.32
2017-01-26T06:42:12.710Z,17.83
2017-01-26T06:43:12.274Z,17.86
2017-01-26T06:44:12.962Z,17.89
2017-01-26T06:45:12.646Z,17.55
2017-01-26T06:46:12.397Z,17.36
2017-01-26T06:47:12.422Z,17.32
2017-01-26T06:48:13.287Z,17.30
2017-01-26T06:49:13.477Z,17.29
2017-01-26T06:50:13.185Z,17.28
2017-01-26T06:51:11.063Z,17.27
2017-01-26T06:52:12.389Z,17.27
2017-01-26T06:53:13.246Z,17.27
2017-01-26T06:54:12.837Z,17.26
2017-01-26T06:55:12.559Z,17.26
2017-01-26T06:56:12.254Z,17.26
2017-01-26T06:57:10.923Z,17.25
2017-01-26T06:58:12.308Z,17.26
2017-01-26T06:59:14.347Z,17.26
2017-01-26T07:00:09.714Z,17.26
2017-01-26T07:01:13.245Z,17.27
2017-01-26T07:02:12.403Z,17.26
2017-01-26T07:03:13.144Z,17.29
2017-01-26T07:04:12.395Z,17.25
2017-01-26T07:05:12.880Z,17.26
2017-01-26T07:06:12.531Z,17.25
2017-01-26T07:07:13.302Z,17.25
2017-01-26T07:08:10.442Z,17.24
2017-01-26T07:09:14.296Z,17.25
2017-01-26T07:10:13.982Z,17.25
2017-01-26T07:11:10.867Z,17.25
2017-01-26T07:12:11.981Z,17.25
2017-01-26T07:13:12.580Z,17.25
2017-01-26T07:14:09.814Z,17.25
2017-01-26T07:15:12.959Z,17.26
2017-01-26T07:16:11.880Z,17.25
2017-01-26T07:17:10.546Z,17.25
2017-01-26T07:18:11.903Z,17.25
2017-01-26T07:19:11.893Z,17.25
2017-01-26T07:20:11.087Z,17.25
2017-01-26T07:21:13.079Z,17.24
2017-01-26T07:22:12.905Z,17.26
2017-01-26T07:23:14.042Z,17.25
2017-01-26T07:24:12.841Z,17.26
2017-01-26T07:25:12.638Z,17.25
2017-01-26T07:26:12.704Z,17.26
2017-01-26T07:27:11.792Z,17.26
2017-01-26T07:28:12.626Z,17.26
2017-01-26T07:29:11.841Z,17.25
2017-01-26T07:30:09.393Z,17.25
2017-01-26T07:31:13.269Z,17.25
2017-01-26T07:32:14.038Z,17.25
2017-01-26T07:33:12.732Z,17.26
2017-01-26T07:34:14.383Z,17.26
2017-01-26T07:35:12.437Z,17.26
2017-01-26T07:36:13.114Z,17.26
2017-01-26T07:37:12.520Z,17.27
2017-01-26T07:38:12.555Z,17.26
2017-01-26T07:39:12.148Z,17.26
2017-01-26T07:40:12.637Z,17.26
2017-01-26T07:41:12.515Z,17.26
2017-01-26T07:42:13.302Z,17.26
2017-01-26T07:43:10.527Z,17.25
2017-01-26T07:44:12.450Z,17.26
2017-01-26T07:45:13.639Z,17.27
2017-01-26T07:46:11.626Z,17.27
2017-01-26T07:47:12.670Z,17.27
2017-01-26T07:48:11.719Z,17.26
2017-01-26T07:49:12.168Z,17.34
2017-01-26T07:50:12.666Z,17.32
2017-01-26T07:51:11.842Z,17.27
2017-01-26T07:52:12.427Z,17.31
2017-01-26T07:53:12.751Z,17.26
2017-01-26T07:54:11.704Z,17.27
2017-01-26T07:55:11.962Z,17.26
2017-01-26T07:56:12.081Z,17.27
2017-01-26T07:57:12.760Z,17.26
2017-01-26T07:58:12.746Z,17.27
2017-01-26T07:59:12.010Z,17.27
2017-01-26T08:00:11.986Z,17.27
2017-01-26T08:01:12.049Z,17.27
2017-01-26T08:02:12.596Z,17.27
2017-01-26T08:03:12.803Z,17.27
2017-01-26T08:04:12.635Z,17.28
2017-01-26T08:05:12.070Z,17.28
2017-01-26T08:06:12.748Z,17.27
2017-01-26T08:07:12.020Z,17.27
2017-01-26T08:08:13.774Z,17.27
2017-01-26T08:09:12.677Z,17.26
2017-01-26T08:10:13.301Z,17.81
2017-01-26T08:11:13.178Z,17.86
2017-01-26T08:12:10.100Z,17.85
2017-01-26T08:13:14.273Z,17.90
2017-01-26T08:14:11.272Z,17.89
2017-01-26T08:15:12.475Z,17.92
2017-01-26T08:16:13.229Z,17.91
2017-01-26T08:17:12.497Z,17.93
2017-01-26T08:18:12.570Z,17.93
2017-01-26T08:19:11.568Z,17.95
2017-01-26T08:20:13.372Z,17.93
2017-01-26T08:21:12.889Z,17.94
2017-01-26T08:22:11.820Z,17.94
2017-01-26T08:23:12.252Z,17.93
2017-01-26T08:24:12.736Z,17.95
2017-01-26T08:25:12.473Z,17.95
2017-01-26T08:26:13.061Z,17.93
2017-01-26T08:27:12.874Z,17.41
2017-01-26T08:28:13.459Z,17.36
2017-01-26T08:29:12.655Z,17.33
2017-01-26T08:30:12.535Z,17.32
2017-01-26T08:31:12.208Z,17.35
2017-01-26T08:32:13.938Z,17.28
2017-01-26T08:33:11.932Z,17.29
2017-01-26T08:34:11.951Z,17.28
2017-01-26T08:35:12.514Z,17.28
2017-01-26T08:36:12.822Z,17.29
2017-01-26T08:37:12.472Z,17.29
2017-01-26T08:38:14.083Z,17.28
2017-01-26T08:39:12.980Z,17.29
2017-01-26T08:40:12.222Z,17.30
2017-01-26T08:41:12.971Z,17.29
2017-01-26T08:42:12.663Z,17.34
2017-01-26T08:43:11.703Z,17.29
2017-01-26T08:44:11.623Z,17.30
2017-01-26T08:45:13.182Z,17.30
2017-01-26T08:46:12.292Z,17.31
2017-01-26T08:47:12.411Z,17.31
2017-01-26T08:48:12.470Z,17.31
2017-01-26T08:49:11.633Z,17.30
2017-01-26T08:50:12.330Z,17.85
2017-01-26T08:51:13.171Z,17.89
2017-01-26T08:52:12.340Z,17.43
2017-01-26T08:53:12.475Z,17.38
2017-01-26T08:54:13.058Z,17.36
2017-01-26T08:55:12.858Z,17.36
2017-01-26T08:56:11.908Z,17.35
2017-01-26T08:57:11.962Z,17.35
2017-01-26T08:58:12.139Z,17.34
2017-01-26T08:59:13.642Z,17.34
2017-01-26T09:00:11.697Z,17.33
2017-01-26T09:01:10.866Z,17.32
2017-01-26T09:02:12.966Z,17.87
2017-01-26T09:03:13.892Z,17.92
2017-01-26T09:04:10.716Z,17.95
2017-01-26T09:05:13.307Z,17.97
2017-01-26T09:06:13.061Z,17.98
2017-01-26T09:07:12.396Z,17.98
2017-01-26T09:08:10.726Z,17.99
2017-01-26T09:09:12.516Z,17.99
2017-01-26T09:10:12.588Z,17.99
2017-01-26T09:11:12.588Z,17.64
2017-01-26T09:12:13.259Z,17.48
2017-01-26T09:13:13.403Z,17.44
2017-01-26T09:14:09.731Z,17.31
2017-01-26T09:15:11.869Z,15.45
2017-01-26T09:16:15.704Z,14.42
2017-01-26T09:17:11.736Z,13.53
2017-01-26T09:18:08.947Z,13.00
2017-01-26T09:19:12.998Z,12.31
2017-01-26T09:20:12.842Z,12.43
2017-01-26T09:21:11.881Z,12.11
2017-01-26T09:22:12.520Z,11.51
2017-01-26T09:23:12.690Z,10.68
2017-01-26T09:24:13.457Z,10.58
2017-01-26T09:25:12.618Z,10.47
2017-01-26T09:26:12.906Z,11.03
2017-01-26T09:27:10.721Z,11.69
2017-01-26T09:28:12.297Z,12.34
2017-01-26T09:29:12.762Z,12.87
2017-01-26T09:30:12.430Z,13.41
2017-01-26T09:31:11.320Z,13.87
2017-01-26T09:32:13.210Z,14.90
2017-01-26T09:33:12.968Z,15.24
2017-01-26T09:34:12.669Z,14.99
2017-01-26T09:35:13.659Z,15.19
2017-01-26T09:36:12.449Z,15.36
2017-01-26T09:37:13.226Z,15.54
2017-01-26T09:38:12.712Z,15.78
2017-01-26T09:39:13.381Z,15.84
2017-01-26T09:40:12.498Z,15.85
2017-01-26T09:41:13.045Z,15.94
2017-01-26T09:42:13.096Z,15.93
2017-01-26T09:43:12.680Z,15.97
2017-01-26T09:44:10.969Z,15.99
2017-01-26T09:45:12.747Z,16.07
2017-01-26T09:46:13.396Z,16.18
2017-01-26T09:47:13.072Z,16.21
2017-01-26T09:48:12.166Z,16.25
2017-01-26T09:49:12.283Z,16.28
2017-01-26T09:50:15.070Z,16.30
2017-01-26T09:51:12.782Z,16.32
2017-01-26T09:52:12.529Z,16.34
2017-01-26T09:53:13.115Z,16.41
2017-01-26T09:54:12.859Z,16.40
2017-01-26T09:55:13.391Z,16.41
2017-01-26T09:56:11.338Z,16.44
2017-01-26T09:57:13.314Z,16.46
2017-01-26T09:58:12.450Z,16.48
2017-01-26T09:59:12.463Z,16.51
2017-01-26T10:00:13.069Z,16.54
2017-01-26T10:01:12.761Z,16.64
2017-01-26T10:02:11.861Z,17.12
2017-01-26T10:03:12.016Z,17.21
2017-01-26T10:04:12.817Z,17.27
2017-01-26T10:05:11.688Z,17.28
2017-01-26T10:06:12.303Z,17.30
2017-01-26T10:07:13.974Z,17.32
2017-01-26T10:08:12.765Z,17.34
2017-01-26T10:09:12.513Z,16.98
2017-01-26T10:10:11.681Z,16.81
2017-01-26T10:11:14.568Z,16.77
2017-01-26T10:12:14.443Z,16.75
2017-01-26T10:13:12.719Z,16.75
2017-01-26T10:14:12.486Z,16.78
2017-01-26T10:15:12.549Z,16.77
2017-01-26T10:16:11.701Z,16.77
2017-01-26T10:17:12.038Z,16.77
2017-01-26T10:18:12.714Z,16.80
2017-01-26T10:19:13.405Z,16.88
2017-01-26T10:20:15.257Z,16.89
2017-01-26T10:21:13.299Z,16.90
2017-01-26T10:22:12.797Z,16.94
2017-01-26T10:23:13.585Z,16.94
2017-01-26T10:24:11.832Z,16.96
2017-01-26T10:25:13.741Z,17.00
2017-01-26T10:26:12.627Z,17.02
2017-01-26T10:27:15.797Z,17.06
2017-01-26T10:28:12.235Z,17.06
2017-01-26T10:29:13.897Z,17.09
2017-01-26T10:30:11.924Z,17.10
2017-01-26T10:31:12.684Z,17.10
2017-01-26T10:32:13.453Z,17.18
2017-01-26T10:33:13.014Z,17.22
2017-01-26T10:34:12.121Z,17.20
2017-01-26T10:35:12.309Z,17.19
2017-01-26T10:36:14.229Z,17.19
2017-01-26T10:37:13.189Z,17.19
2017-01-26T10:38:12.888Z,17.27
2017-01-26T10:39:14.710Z,17.19
2017-01-26T10:40:11.839Z,17.21
2017-01-26T10:41:11.968Z,17.22
2017-01-26T10:42:12.551Z,17.30
2017-01-26T10:43:12.656Z,17.24
2017-01-26T10:44:14.571Z,17.25
2017-01-26T10:45:12.204Z,17.29
2017-01-26T10:46:12.997Z,17.27
2017-01-26T10:47:13.047Z,17.28
2017-01-26T10:48:12.136Z,17.29
2017-01-26T10:49:12.925Z,17.31
2017-01-26T10:50:13.449Z,17.31
2017-01-26T10:51:13.437Z,17.32
2017-01-26T10:52:12.370Z,17.32
2017-01-26T10:53:13.004Z,17.33
2017-01-26T10:54:12.013Z,17.34
2017-01-26T10:55:14.743Z,17.34
2017-01-26T10:56:12.607Z,17.35
2017-01-26T10:57:11.805Z,17.43
2017-01-26T10:58:12.613Z,17.46
2017-01-26T10:59:11.890Z,17.47
2017-01-26T11:00:10.964Z,17.42
2017-01-26T11:01:14.586Z,17.93
2017-01-26T11:02:12.302Z,17.44
2017-01-26T11:03:14.365Z,17.40
2017-01-26T11:04:12.867Z,17.47
2017-01-26T11:05:12.584Z,17.45
2017-01-26T11:06:11.679Z,17.37
2017-01-26T11:07:12.554Z,17.32
2017-01-26T11:08:13.332Z,17.32
2017-01-26T11:09:12.595Z,17.34
2017-01-26T11:10:12.994Z,17.41
2017-01-26T11:11:13.333Z,17.51
2017-01-26T11:12:13.506Z,17.63
2017-01-26T11:13:14.265Z,17.64
2017-01-26T11:14:13.715Z,17.63
2017-01-26T11:15:12.506Z,17.64
2017-01-26T11:16:14.309Z,17.63
2017-01-26T11:17:14.196Z,17.62
2017-01-26T11:18:13.667Z,17.68
2017-01-26T11:19:13.142Z,17.79
2017-01-26T11:20:13.792Z,17.77
2017-01-26T11:21:12.356Z,17.84
2017-01-26T11:22:12.706Z,18.31
2017-01-26T11:23:12.371Z,18.39
2017-01-26T11:24:15.320Z,18.46
2017-01-26T11:25:12.631Z,18.14
2017-01-26T11:26:11.829Z,17.95
2017-01-26T11:27:12.411Z,17.80
2017-01-26T11:28:13.272Z,17.79
2017-01-26T11:29:12.549Z,17.85
2017-01-26T11:30:12.865Z,17.87
2017-01-26T11:31:13.573Z,17.89
2017-01-26T11:32:10.779Z,17.90
2017-01-26T11:33:12.415Z,18.08
2017-01-26T11:34:11.266Z,17.96
2017-01-26T11:35:13.387Z,18.48
2017-01-26T11:36:12.800Z,18.55
2017-01-26T11:37:11.928Z,18.61
2017-01-26T11:38:46.768Z,18.76
2017-01-26T11:39:24.002Z,18.91
2017-01-26T11:40:13.259Z,18.78
2017-01-26T11:41:12.518Z,18.72
2017-01-26T11:42:12.787Z,18.78
2017-01-26T11:43:11.896Z,18.83
2017-01-26T11:44:12.147Z,18.87
2017-01-26T11:45:13.675Z,18.99
2017-01-26T11:46:12.378Z,19.00
2017-01-26T11:47:11.117Z,19.02
2017-01-26T11:48:12.544Z,19.61
2017-01-26T11:49:12.482Z,19.70
2017-01-26T11:50:12.637Z,19.73
2017-01-26T11:51:11.674Z,19.44
2017-01-26T11:52:11.817Z,19.28
2017-01-26T11:53:11.879Z,19.27
2017-01-26T11:54:10.982Z,19.25
2017-01-26T11:55:13.497Z,19.83
2017-01-26T11:56:13.360Z,19.90
2017-01-26T11:57:13.040Z,19.58
2017-01-26T11:58:12.712Z,19.44
2017-01-26T11:59:11.804Z,19.42
2017-01-26T12:00:14.365Z,19.38
2017-01-26T12:01:12.148Z,19.42
2017-01-26T12:02:13.009Z,19.95
2017-01-26T12:03:11.993Z,20.03
2017-01-26T12:04:10.491Z,20.06
2017-01-26T12:05:13.433Z,19.55
2017-01-26T12:06:14.133Z,19.54
2017-01-26T12:07:13.062Z,19.54
2017-01-26T12:08:12.238Z,19.55
2017-01-26T12:09:14.158Z,19.57
2017-01-26T12:10:13.808Z,19.56
2017-01-26T12:11:10.925Z,19.53
2017-01-26T12:12:14.517Z,19.59
2017-01-26T12:13:12.749Z,19.59
2017-01-26T12:14:12.417Z,19.61
2017-01-26T12:15:10.798Z,19.61
2017-01-26T12:16:11.965Z,19.54
2017-01-26T12:17:12.779Z,19.42
2017-01-26T12:18:11.955Z,19.91
2017-01-26T12:19:12.708Z,19.99
2017-01-26T12:20:12.095Z,20.07
2017-01-26T12:21:12.712Z,19.78
2017-01-26T12:22:11.777Z,19.62
2017-01-26T12:23:12.006Z,19.60
2017-01-26T12:24:12.026Z,19.61
2017-01-26T12:25:12.048Z,19.66
2017-01-26T12:26:12.136Z,19.70
2017-01-26T12:27:12.820Z,19.70
2017-01-26T12:28:12.766Z,19.70
2017-01-26T12:29:13.182Z,19.71
2017-01-26T12:30:12.865Z,19.74
2017-01-26T12:31:11.936Z,19.75
2017-01-26T12:32:11.893Z,19.78
2017-01-26T12:33:14.392Z,19.79
2017-01-26T12:34:12.504Z,19.77
2017-01-26T12:35:12.630Z,19.80
2017-01-26T12:36:10.377Z,19.80
2017-01-26T12:37:12.312Z,19.81
2017-01-26T12:38:12.450Z,19.81
2017-01-26T12:39:12.707Z,19.76
2017-01-26T12:40:12.419Z,19.80
2017-01-26T12:41:13.411Z,19.82
2017-01-26T12:42:12.853Z,19.91
2017-01-26T12:43:10.817Z,20.40
2017-01-26T12:44:12.110Z,19.96
2017-01-26T12:45:12.399Z,19.98
2017-01-26T12:46:11.507Z,19.98
2017-01-26T12:47:13.197Z,20.52
2017-01-26T12:48:12.213Z,20.58
2017-01-26T12:49:12.265Z,20.26
2017-01-26T12:50:12.991Z,20.12
2017-01-26T12:51:13.207Z,20.08
2017-01-26T12:52:10.797Z,20.07